Time;durP1;ratioP1;P1;durP2;ratioP2;P2;SDS_P1;SDS_P2;PMS_P1;PMS_P2;Temp;Humidity;BMP_temperature;BMP_pressure;BME280_temperature;BME280_humidity;BME280_pressure;Samples;Min_cycle;Max_cycle;Signal;HPM_P1;HPM_P2
2021/07/18 00:01:47;;;;;;;13.53;12.07;;;;;;;25.76;100.00;99517.59;1640507;86;21131;-69
2021/07/18 00:04:14;;;;;;;18.83;12.70;;;;;;;25.45;100.00;99514.23;1640816;86;22057;-68
2021/07/18 00:06:41;;;;;;;18.43;11.60;;;;;;;25.35;100.00;99514.47;1641593;86;21163;-69
2021/07/18 00:09:09;;;;;;;16.63;11.77;;;;;;;25.72;100.00;99516.58;1642077;86;20957;-70
2021/07/18 00:11:37;;;;;;;15.23;11.53;;;;;;;25.82;100.00;99517.72;1640830;86;20977;-66
2021/07/18 00:14:05;;;;;;;16.07;11.13;;;;;;;25.80;100.00;99517.77;1641624;87;21033;-67
2021/07/18 00:16:33;;;;;;;13.80;11.77;;;;;;;25.65;100.00;99517.56;1641681;86;20965;-68
2021/07/18 00:19:00;;;;;;;17.33;10.67;;;;;;;25.93;100.00;99514.28;1641905;87;21171;-67
2021/07/18 00:21:27;;;;;;;12.23;10.70;;;;;;;25.78;100.00;99515.42;1641518;86;21002;-59
2021/07/18 00:23:54;;;;;;;17.13;12.20;;;;;;;25.95;100.00;99509.44;1641640;87;21108;-68
2021/07/18 00:26:22;;;;;;;15.77;12.03;;;;;;;25.75;100.00;99505.30;1642103;86;21088;-65
2021/07/18 00:28:49;;;;;;;20.20;11.83;;;;;;;25.69;100.00;99506.53;1642118;86;20954;-65
2021/07/18 00:31:16;;;;;;;17.60;11.83;;;;;;;25.88;100.00;99509.85;1641937;86;22008;-67
2021/07/18 00:33:42;;;;;;;14.00;10.63;;;;;;;25.87;100.00;99510.92;1640671;86;20997;-60
2021/07/18 00:36:11;;;;;;;16.07;11.47;;;;;;;25.63;100.00;99507.73;1641945;86;21033;-67
2021/07/18 00:38:37;;;;;;;16.50;12.17;;;;;;;25.29;100.00;99514.31;1641730;86;21448;-68
2021/07/18 00:41:04;;;;;;;13.10;11.60;;;;;;;25.43;100.00;99510.30;1641965;87;21547;-67
2021/07/18 00:43:33;;;;;;;19.87;11.57;;;;;;;25.52;100.00;99509.03;1641137;86;21810;-61
2021/07/18 00:46:01;;;;;;;14.23;11.33;;;;;;;25.38;100.00;99512.54;1641217;86;21462;-68
2021/07/18 00:48:30;;;;;;;14.77;11.20;;;;;;;25.30;100.00;99513.22;1641594;87;21050;-68
2021/07/18 00:50:58;;;;;;;15.27;10.80;;;;;;;25.10;100.00;99513.64;1631994;86;21128;-68
2021/07/18 00:53:25;;;;;;;13.37;10.43;;;;;;;25.17;100.00;99505.48;1642067;86;21062;-59
2021/07/18 00:55:53;;;;;;;13.20;11.00;;;;;;;24.99;100.00;99511.69;1641199;86;21040;-71
2021/07/18 00:58:20;;;;;;;15.13;11.07;;;;;;;24.96;100.00;99509.09;1635984;87;21536;-68
2021/07/18 01:00:48;;;;;;;14.33;10.87;;;;;;;25.05;100.00;99513.17;1641905;86;21040;-68
2021/07/18 01:03:15;;;;;;;13.07;10.17;;;;;;;25.03;100.00;99515.89;1641728;86;21529;-59
2021/07/18 01:05:42;;;;;;;20.27;11.07;;;;;;;25.10;100.00;99518.43;1640774;86;21064;-59
2021/07/18 01:08:10;;;;;;;12.47;10.90;;;;;;;25.20;100.00;99520.11;1640525;87;21958;-68
2021/07/18 01:10:39;;;;;;;16.53;11.40;;;;;;;25.00;100.00;99519.41;1640911;86;21648;-69
2021/07/18 01:13:05;;;;;;;17.07;11.93;;;;;;;24.90;100.00;99524.92;1640898;86;20986;-69
2021/07/18 01:15:32;;;;;;;13.43;10.67;;;;;;;24.96;100.00;99516.27;1640220;87;21021;-69
2021/07/18 01:17:58;;;;;;;14.67;9.93;;;;;;;24.88;100.00;99525.75;1614360;87;22403;-60
2021/07/18 01:20:25;;;;;;;13.03;9.87;;;;;;;25.00;100.00;99523.41;1640771;86;21150;-67
2021/07/18 01:22:52;;;;;;;12.07;9.50;;;;;;;24.78;100.00;99531.30;1640999;86;21052;-69
2021/07/18 01:25:19;;;;;;;12.07;9.37;;;;;;;24.66;100.00;99531.77;1641141;86;20946;-66
2021/07/18 01:27:45;;;;;;;12.47;9.53;;;;;;;24.82;100.00;99532.83;1640588;86;21559;-68
2021/07/18 01:30:14;;;;;;;13.57;9.90;;;;;;;24.87;100.00;99534.84;1641303;86;21080;-61
2021/07/18 01:32:42;;;;;;;13.90;9.87;;;;;;;24.98;100.00;99534.90;1640823;86;21172;-68
2021/07/18 01:35:11;;;;;;;15.03;9.33;;;;;;;24.87;100.00;99532.72;1640993;86;20938;-70
2021/07/18 01:37:39;;;;;;;13.83;9.40;;;;;;;24.73;100.00;99532.16;1640762;86;21104;-68
2021/07/18 01:40:10;;;;;;;10.90;8.47;;;;;;;24.66;100.00;99537.10;1640911;86;21026;-68
2021/07/18 01:42:40;;;;;;;10.40;8.57;;;;;;;24.69;100.00;99539.16;1640363;86;21005;-71
2021/07/18 01:45:08;;;;;;;9.33;8.33;;;;;;;24.61;100.00;99535.84;1640634;86;21370;-61
2021/07/18 01:47:34;;;;;;;10.30;8.00;;;;;;;24.92;100.00;99532.06;1640743;86;21009;-69
2021/07/18 01:50:01;;;;;;;10.90;8.57;;;;;;;24.85;100.00;99538.36;1640884;86;21088;-68
2021/07/18 01:52:27;;;;;;;10.07;8.70;;;;;;;24.81;100.00;99537.34;1641209;86;21022;-59
2021/07/18 01:54:55;;;;;;;11.77;9.80;;;;;;;24.67;100.00;99538.67;1640507;86;21074;-69
2021/07/18 01:57:22;;;;;;;11.80;9.10;;;;;;;24.65;100.00;99533.38;1640719;86;21136;-68
2021/07/18 01:59:49;;;;;;;10.77;9.03;;;;;;;24.60;100.00;99534.27;1640443;86;21068;-68
2021/07/18 02:02:15;;;;;;;11.03;9.10;;;;;;;24.67;100.00;99533.89;1641271;86;20954;-69
2021/07/18 02:04:42;;;;;;;10.27;8.93;;;;;;;24.76;100.00;99534.78;1640575;86;21120;-61
2021/07/18 02:07:08;;;;;;;14.83;9.63;;;;;;;24.84;100.00;99534.09;1640964;87;21833;-69
2021/07/18 02:09:36;;;;;;;13.77;11.27;;;;;;;25.03;100.00;99535.34;1640370;86;21922;-68
2021/07/18 02:12:06;;;;;;;15.33;11.03;;;;;;;25.31;100.00;99538.83;1640982;86;21558;-67
2021/07/18 02:14:38;;;;;;;13.80;10.30;;;;;;;25.70;100.00;99538.80;1641284;86;20997;-59
2021/07/18 02:17:05;;;;;;;13.03;10.50;;;;;;;25.83;100.00;99537.20;1640950;86;21050;-61
2021/07/18 02:19:32;;;;;;;12.10;10.80;;;;;;;26.10;100.00;99529.63;1640758;86;21033;-68
2021/07/18 02:21:59;;;;;;;12.27;11.00;;;;;;;26.29;100.00;99528.91;1641073;86;21977;-68
2021/07/18 02:24:26;;;;;;;13.90;10.77;;;;;;;26.64;100.00;99529.13;1640971;86;21036;-68
2021/07/18 02:26:54;;;;;;;15.20;11.20;;;;;;;26.89;100.00;99527.09;1640585;86;20954;-59
2021/07/18 02:29:21;;;;;;;17.43;11.57;;;;;;;27.30;100.00;99525.20;1640859;86;21037;-67
2021/07/18 02:31:48;;;;;;;13.97;11.97;;;;;;;27.69;100.00;99518.15;1640796;86;21025;-68
2021/07/18 02:34:15;;;;;;;14.37;11.30;;;;;;;28.20;100.00;99519.25;1641050;86;21117;-68
2021/07/18 02:36:42;;;;;;;14.90;11.73;;;;;;;28.51;100.00;99517.14;1640451;86;21024;-60
2021/07/18 02:39:08;;;;;;;14.83;11.87;;;;;;;28.99;100.00;99513.91;1640353;86;21167;-69
2021/07/18 02:41:37;;;;;;;12.60;11.33;;;;;;;29.43;100.00;99506.36;1641096;86;21032;-68
2021/07/18 02:44:06;;;;;;;16.07;12.33;;;;;;;29.80;100.00;99517.55;1641114;86;21073;-68
2021/07/18 02:46:34;;;;;;;17.23;11.40;;;;;;;29.76;100.00;99516.63;1641321;86;21145;-69
2021/07/18 02:49:00;;;;;;;15.70;11.45;;;;;;;29.99;100.00;99521.66;1640402;86;21012;-70
2021/07/18 02:51:27;;;;;;;12.07;10.30;;;;;;;30.29;100.00;99519.08;1641829;86;21919;-68
2021/07/18 02:53:54;;;;;;;13.22;10.78;;;;;;;30.52;100.00;99524.06;1641832;86;21483;-69
2021/07/18 02:56:21;;;;;;;17.48;10.32;;;;;;;30.68;100.00;99524.96;1641650;86;21017;-70
2021/07/18 02:58:48;;;;;;;12.68;10.10;;;;;;;30.91;100.00;99521.86;1640321;86;21165;-61
2021/07/18 03:01:15;;;;;;;12.30;10.38;;;;;;;31.02;100.00;99531.84;1654136;83;21103;-70
2021/07/18 03:03:42;;;;;;;16.97;11.33;;;;;;;31.40;100.00;99536.08;1671756;85;20972;-73
2021/07/18 03:06:09;;;;;;;10.93;9.93;;;;;;;31.94;100.00;99528.22;1671740;84;21634;-70
2021/07/18 03:08:38;;;;;;;12.50;10.72;;;;;;;32.63;100.00;99521.54;1672000;84;20948;-62
2021/07/18 03:11:06;;;;;;;11.80;10.45;;;;;;;33.00;100.00;99519.92;1671350;85;22080;-70
2021/07/18 03:13:33;;;;;;;12.63;10.00;;;;;;;33.48;100.00;99523.28;1669675;85;21863;-69
2021/07/18 03:16:00;;;;;;;12.98;9.73;;;;;;;33.93;100.00;99517.02;1671684;85;21049;-70
2021/07/18 03:18:27;;;;;;;11.28;8.73;;;;;;;34.24;100.00;99517.41;1671241;84;21035;-68
2021/07/18 03:20:54;;;;;;;11.10;9.28;;;;;;;34.42;100.00;99514.44;1670386;84;20973;-62
2021/07/18 03:23:22;;;;;;;10.50;8.75;;;;;;;34.54;100.00;99514.28;1671385;83;21782;-68
2021/07/18 03:25:48;;;;;;;10.50;9.53;;;;;;;34.82;98.65;99515.89;1671458;84;21039;-69
2021/07/18 03:28:15;;;;;;;9.98;8.78;;;;;;;34.95;96.89;99511.81;1671714;83;21083;-68
2021/07/18 03:30:42;;;;;;;11.90;8.73;;;;;;;35.48;91.61;99511.77;1671834;84;21079;-63
2021/07/18 03:33:09;;;;;;;9.13;8.15;;;;;;;36.12;84.11;99508.25;1671628;85;21494;-69
2021/07/18 03:35:37;;;;;;;9.33;7.35;;;;;;;36.66;76.99;99502.71;1672229;85;21117;-69
2021/07/18 03:38:03;;;;;;;11.40;8.93;;;;;;;37.15;72.53;99506.92;1672168;85;21012;-69
2021/07/18 03:40:29;;;;;;;10.30;7.62;;;;;;;37.67;66.58;99502.88;1671920;85;21538;-69
2021/07/18 03:42:58;;;;;;;9.00;8.08;;;;;;;37.99;62.42;99502.20;1670888;85;21029;-70
2021/07/18 03:45:24;;;;;;;10.65;8.58;;;;;;;38.49;58.03;99508.27;1672304;85;21389;-70
2021/07/18 03:47:50;;;;;;;10.68;8.03;;;;;;;38.81;54.56;99509.05;1671972;85;21780;-70
2021/07/18 03:50:18;;;;;;;8.88;7.58;;;;;;;39.05;52.37;99507.42;1671565;85;21056;-71
2021/07/18 03:52:45;;;;;;;10.18;7.60;;;;;;;39.21;51.60;99506.20;1671779;85;21001;-61
2021/07/18 03:55:14;;;;;;;9.40;7.75;;;;;;;39.81;49.04;99505.20;1671225;84;21068;-71
2021/07/18 03:57:41;;;;;;;8.13;7.28;;;;;;;40.24;47.14;99508.44;1672078;85;21067;-70
2021/07/18 04:00:09;;;;;;;9.88;8.43;;;;;;;40.66;45.11;99505.77;1671985;85;21124;-71
2021/07/18 04:02:35;;;;;;;11.40;8.30;;;;;;;40.76;43.87;99502.91;1671571;85;21009;-71
2021/07/18 04:05:02;;;;;;;12.40;8.88;;;;;;;40.76;42.97;99507.59;1662125;84;20957;-67
2021/07/18 04:07:32;;;;;;;12.05;8.65;;;;;;;40.68;42.74;99502.02;1671748;84;22320;-70
2021/07/18 04:09:59;;;;;;;10.60;9.13;;;;;;;41.01;41.94;99503.27;1671928;85;21012;-70
2021/07/18 04:12:26;;;;;;;12.03;9.48;;;;;;;41.39;40.98;99501.23;1672013;85;21182;-71
2021/07/18 04:14:53;;;;;;;11.12;9.83;;;;;;;41.56;40.14;99499.47;1665209;84;20954;-70
2021/07/18 04:17:20;;;;;;;12.45;11.25;;;;;;;42.12;38.85;99496.33;1667048;85;21816;-71
2021/07/18 04:19:46;;;;;;;12.55;11.25;;;;;;;42.19;37.77;99499.73;1671687;85;21103;-70
2021/07/18 04:22:13;;;;;;;12.33;11.05;;;;;;;42.64;37.14;99493.89;1671621;84;20996;-70
2021/07/18 04:24:40;;;;;;;12.80;11.38;;;;;;;43.00;35.89;99489.91;1672267;85;21171;-70
2021/07/18 04:27:07;;;;;;;12.23;11.05;;;;;;;43.14;35.27;99497.69;1670921;85;21032;-60
2021/07/18 04:29:33;;;;;;;11.57;10.60;;;;;;;43.32;34.36;99493.98;1671320;84;21244;-71
2021/07/18 04:32:00;;;;;;;11.40;10.20;;;;;;;43.08;34.40;99496.05;1671155;85;21044;-71
2021/07/18 04:34:26;;;;;;;12.80;11.55;;;;;;;42.62;35.13;99494.92;1671470;84;21506;-70
2021/07/18 04:36:55;;;;;;;11.30;10.28;;;;;;;42.39;35.75;99486.70;1664584;85;21170;-69
2021/07/18 04:39:22;;;;;;;10.95;9.93;;;;;;;42.60;35.55;99483.59;1667540;85;21114;-72
2021/07/18 04:41:49;;;;;;;12.03;9.73;;;;;;;42.91;35.45;99481.46;1671403;85;21170;-69
2021/07/18 04:44:15;;;;;;;9.78;8.88;;;;;;;43.12;34.63;99485.02;1671787;85;21021;-70
2021/07/18 04:46:43;;;;;;;10.93;9.78;;;;;;;43.21;33.94;99481.09;1671290;83;21047;-62
2021/07/18 04:49:10;;;;;;;9.55;8.70;;;;;;;43.23;34.15;99482.83;1670799;85;21007;-65
2021/07/18 04:51:37;;;;;;;11.28;9.48;;;;;;;43.23;33.98;99486.33;1671476;84;21630;-71
2021/07/18 04:54:04;;;;;;;9.70;8.90;;;;;;;43.52;32.84;99476.73;1671806;83;21033;-70
2021/07/18 04:56:30;;;;;;;10.08;9.13;;;;;;;43.28;33.12;99476.83;1672055;84;21090;-76
2021/07/18 04:58:57;;;;;;;9.98;9.05;;;;;;;43.63;32.25;99481.38;1672071;84;21040;-73
2021/07/18 05:01:24;;;;;;;9.98;8.53;;;;;;;43.70;32.53;99485.34;1670532;85;21154;-64
2021/07/18 05:03:50;;;;;;;10.45;9.55;;;;;;;44.18;31.42;99477.73;1671895;85;21437;-76
2021/07/18 05:06:17;;;;;;;10.48;9.40;;;;;;;44.10;31.43;99473.62;1671627;84;21104;-73
2021/07/18 05:08:43;;;;;;;8.85;8.05;;;;;;;43.86;31.03;99478.47;1671690;85;21080;-76
2021/07/18 05:11:11;;;;;;;9.18;8.28;;;;;;;43.51;30.98;99480.08;1671973;85;21083;-62
2021/07/18 05:13:37;;;;;;;8.65;7.85;;;;;;;43.37;31.53;99481.73;1670893;85;21934;-71
2021/07/18 05:16:05;;;;;;;8.73;7.90;;;;;;;43.59;31.73;99489.69;1671510;85;21331;-76
2021/07/18 05:18:32;;;;;;;8.28;7.47;;;;;;;43.80;31.67;99489.05;1671620;83;21048;-77
2021/07/18 05:20:59;;;;;;;9.45;8.55;;;;;;;44.11;31.85;99479.27;1671507;84;21517;-77
2021/07/18 05:23:26;;;;;;;9.03;8.18;;;;;;;44.17;30.64;99477.53;1671135;84;21036;-65
2021/07/18 05:25:54;;;;;;;10.68;8.95;;;;;;;44.41;31.18;99478.14;1671420;85;21182;-75
2021/07/18 05:28:20;;;;;;;9.23;8.33;;;;;;;44.56;31.19;99479.91;1671620;85;21285;-75
2021/07/18 05:30:47;;;;;;;8.83;8.00;;;;;;;44.19;31.18;99488.11;1671949;85;21073;-76
2021/07/18 05:33:14;;;;;;;12.18;8.98;;;;;;;43.48;32.27;99487.18;1672021;83;21016;-67
2021/07/18 05:35:40;;;;;;;8.08;7.37;;;;;;;42.85;33.00;99485.91;1670943;85;21585;-63
2021/07/18 05:38:06;;;;;;;8.58;7.78;;;;;;;42.53;33.62;99489.97;1671126;85;21491;-69
2021/07/18 05:40:33;;;;;;;9.43;8.53;;;;;;;42.46;33.95;99483.84;1664577;84;21102;-66
2021/07/18 05:43:00;;;;;;;8.78;6.70;;;;;;;42.57;33.71;99485.80;1669994;85;21044;-67
2021/07/18 05:45:27;;;;;;;9.65;7.40;;;;;;;42.49;34.11;99484.39;1671675;85;21157;-67
2021/07/18 05:47:53;;;;;;;8.05;7.33;;;;;;;42.53;34.89;99487.23;1670414;84;21029;-67
2021/07/18 05:50:20;;;;;;;10.75;7.60;;;;;;;42.74;34.05;99490.82;1663946;84;21643;-66
2021/07/18 05:52:46;;;;;;;8.20;7.35;;;;;;;42.67;33.72;99489.58;1666254;85;21079;-64
2021/07/18 05:55:13;;;;;;;8.35;7.60;;;;;;;42.26;34.03;99490.06;1668714;84;21119;-63
2021/07/18 05:57:39;;;;;;;9.63;7.17;;;;;;;42.19;35.10;99487.41;1654861;84;20971;-64
2021/07/18 06:00:10;;;;;;;9.60;7.78;;;;;;;42.09;34.11;99487.58;1661750;84;21118;-66
2021/07/18 06:02:40;;;;;;;8.45;7.65;;;;;;;42.12;34.39;99479.30;1658681;85;22332;-61
2021/07/18 06:05:08;;;;;;;7.78;6.97;;;;;;;42.41;33.93;99480.23;1660807;84;21767;-63
2021/07/18 06:07:36;;;;;;;7.55;6.10;;;;;;;42.57;32.98;99484.43;1662221;86;21028;-62
2021/07/18 06:10:08;;;;;;;10.10;7.33;;;;;;;42.25;31.74;99489.89;1661787;84;20941;-60
2021/07/18 06:12:34;;;;;;;9.43;6.67;;;;;;;41.91;31.83;99487.88;1632486;86;21067;-64
2021/07/18 06:15:01;;;;;;;7.17;6.17;;;;;;;41.78;32.89;99490.37;1661923;84;21129;-62
2021/07/18 06:17:27;;;;;;;7.08;5.58;;;;;;;41.54;32.44;99489.55;1656102;84;21085;-62
2021/07/18 06:19:55;;;;;;;7.75;6.70;;;;;;;41.19;33.79;99485.30;1658647;84;21020;-64
2021/07/18 06:22:21;;;;;;;7.47;5.67;;;;;;;41.07;34.60;99488.75;1643434;84;21046;-61
2021/07/18 06:24:48;;;;;;;6.95;5.92;;;;;;;41.30;33.56;99493.55;1653032;84;21970;-62
2021/07/18 06:27:14;;;;;;;10.32;6.55;;;;;;;41.30;33.85;99492.77;1665423;84;21141;-64
2021/07/18 06:29:41;;;;;;;7.95;7.12;;;;;;;41.57;33.66;99495.56;1648089;84;21014;-62
2021/07/18 06:32:08;;;;;;;7.50;6.58;;;;;;;41.54;33.11;99496.38;1641623;84;21023;-61
2021/07/18 06:34:35;;;;;;;6.78;6.03;;;;;;;41.60;33.07;99489.84;1652919;84;21032;-64
2021/07/18 06:37:02;;;;;;;7.10;6.40;;;;;;;41.87;33.21;99494.00;1651879;84;20933;-62
2021/07/18 06:39:28;;;;;;;7.12;5.83;;;;;;;42.17;32.51;99487.66;1652767;84;21151;-64
2021/07/18 06:41:54;;;;;;;10.65;5.97;;;;;;;42.55;32.21;99489.57;1667086;84;20995;-64
2021/07/18 06:44:21;;;;;;;6.83;6.12;;;;;;;42.72;30.70;99497.30;1657449;84;20963;-60
2021/07/18 06:46:47;;;;;;;6.50;5.90;;;;;;;42.17;31.02;99485.69;1660162;84;22033;-63
2021/07/18 06:49:14;;;;;;;7.67;5.78;;;;;;;41.88;32.16;99494.17;1663012;84;21502;-63
2021/07/18 06:51:41;;;;;;;7.53;6.20;;;;;;;41.89;32.39;99482.80;1682586;83;21814;-64
2021/07/18 06:54:08;;;;;;;6.75;5.80;;;;;;;42.00;32.18;99486.14;1670342;84;21134;-62
2021/07/18 06:56:35;;;;;;;7.97;5.95;;;;;;;42.17;32.06;99486.30;1668464;84;21038;-61
2021/07/18 06:59:01;;;;;;;6.12;5.53;;;;;;;42.35;32.25;99482.66;1675280;84;21361;-64
2021/07/18 07:01:30;;;;;;;6.92;6.05;;;;;;;42.70;31.36;99490.89;1669906;84;21090;-62
2021/07/18 07:03:56;;;;;;;7.80;6.22;;;;;;;43.04;31.30;99490.41;1674293;83;21126;-59
2021/07/18 07:06:23;;;;;;;8.00;6.05;;;;;;;43.09;30.34;99489.97;1668999;84;21015;-64
2021/07/18 07:08:52;;;;;;;7.12;6.42;;;;;;;43.10;30.60;99484.05;1641697;85;21192;-64
2021/07/18 07:11:20;;;;;;;6.95;5.97;;;;;;;43.53;29.86;99484.55;1669648;84;21012;-63
2021/07/18 07:13:47;;;;;;;7.78;6.97;;;;;;;44.09;29.98;99485.78;1669894;84;20944;-66
2021/07/18 07:16:14;;;;;;;6.72;6.00;;;;;;;44.23;28.82;99479.78;1669492;84;21164;-64
2021/07/18 07:18:41;;;;;;;10.90;6.37;;;;;;;43.95;28.73;99486.92;1641641;85;20931;-63
2021/07/18 07:21:09;;;;;;;12.05;7.08;;;;;;;43.85;29.15;99483.03;1640323;85;21152;-62
2021/07/18 07:23:37;;;;;;;7.05;6.35;;;;;;;43.83;28.82;99484.81;1668646;84;21123;-63
2021/07/18 07:26:04;;;;;;;9.15;7.03;;;;;;;43.75;28.78;99490.91;1669105;85;21021;-62
2021/07/18 07:28:33;;;;;;;8.43;6.53;;;;;;;43.53;29.61;99488.67;1669041;85;21167;-60
2021/07/18 07:31:00;;;;;;;8.80;7.00;;;;;;;43.80;29.64;99489.05;1668862;84;21020;-69
2021/07/18 07:33:29;;;;;;;7.72;6.20;;;;;;;44.22;28.45;99485.88;1668639;84;21090;-68
2021/07/18 07:35:57;;;;;;;6.83;6.20;;;;;;;44.51;28.34;99481.80;1669384;85;21040;-66
2021/07/18 07:38:23;;;;;;;7.83;6.00;;;;;;;45.06;27.59;99486.05;1669183;85;21078;-68
2021/07/18 07:40:50;;;;;;;6.37;5.78;;;;;;;45.33;26.69;99482.90;1669404;84;21178;-60
2021/07/18 07:43:17;;;;;;;6.70;6.00;;;;;;;45.78;25.60;99477.80;1668362;85;21068;-67
2021/07/18 07:45:44;;;;;;;7.58;6.22;;;;;;;45.31;25.16;99474.30;1669491;85;21079;-67
2021/07/18 07:48:11;;;;;;;7.08;5.87;;;;;;;44.50;27.00;99484.99;1669402;85;21028;-69
2021/07/18 07:50:38;;;;;;;6.67;5.90;;;;;;;44.11;27.02;99482.63;1668753;84;21502;-70
2021/07/18 07:53:05;;;;;;;5.90;4.97;;;;;;;44.01;27.46;99478.93;1668495;85;22084;-62
2021/07/18 07:55:32;;;;;;;8.98;5.65;;;;;;;44.38;27.29;99476.86;1669477;85;20922;-68
2021/07/18 07:57:59;;;;;;;6.25;5.60;;;;;;;44.25;26.78;99474.61;1668828;85;21078;-68
2021/07/18 08:00:26;;;;;;;7.80;6.37;;;;;;;44.30;27.00;99478.25;1669926;85;21119;-67
2021/07/18 08:02:53;;;;;;;6.80;6.08;;;;;;;44.14;27.17;99469.41;1669531;85;21073;-68
2021/07/18 08:05:20;;;;;;;7.08;5.20;;;;;;;43.73;27.36;99468.62;1668113;85;21182;-68
2021/07/18 08:07:46;;;;;;;7.75;6.65;;;;;;;43.67;27.64;99473.23;1661559;85;21072;-69
2021/07/18 08:10:17;;;;;;;6.30;5.70;;;;;;;43.52;27.99;99469.87;1667571;84;21432;-66
2021/07/18 08:12:46;;;;;;;6.10;5.50;;;;;;;43.13;28.58;99467.35;1669489;85;21021;-69
2021/07/18 08:15:14;;;;;;;8.55;6.62;;;;;;;42.65;28.36;99469.40;1669323;85;21712;-69
2021/07/18 08:17:42;;;;;;;8.30;6.10;;;;;;;42.37;29.42;99466.59;1669285;85;21189;-68
2021/07/18 08:20:14;;;;;;;6.75;5.70;;;;;;;42.65;29.39;99465.89;1669573;85;21464;-69
2021/07/18 08:22:41;;;;;;;8.38;5.97;;;;;;;42.72;29.04;99467.16;1669569;85;21073;-69
2021/07/18 08:25:08;;;;;;;8.65;5.75;;;;;;;42.65;29.10;99472.14;1669036;85;20992;-70
2021/07/18 08:27:35;;;;;;;7.00;6.03;;;;;;;42.71;29.21;99461.51;1668787;85;21537;-65
2021/07/18 08:30:06;;;;;;;6.20;5.45;;;;;;;42.72;29.65;99463.81;1669447;84;21633;-69
2021/07/18 08:32:33;;;;;;;6.08;4.85;;;;;;;42.50;29.14;99466.75;1666611;84;21075;-69
2021/07/18 08:35:00;;;;;;;5.92;5.33;;;;;;;42.22;28.02;99462.53;1664211;84;21617;-68
2021/07/18 08:37:26;;;;;;;9.23;5.80;;;;;;;41.87;28.48;99461.16;1671181;84;20916;-67
2021/07/18 08:39:53;;;;;;;6.22;5.37;;;;;;;41.72;28.83;99459.97;1663708;84;21106;-67
2021/07/18 08:42:20;;;;;;;9.03;5.87;;;;;;;41.60;29.57;99461.91;1672419;84;21167;-68
2021/07/18 08:44:46;;;;;;;7.67;5.90;;;;;;;41.61;29.38;99464.83;1664366;84;21139;-67
2021/07/18 08:47:13;;;;;;;5.97;5.37;;;;;;;41.91;28.74;99455.80;1669049;84;20908;-64
2021/07/18 08:49:39;;;;;;;6.45;5.80;;;;;;;42.25;28.55;99461.13;1668743;84;21514;-64
2021/07/18 08:52:06;;;;;;;7.28;5.72;;;;;;;42.65;27.90;99463.15;1670233;84;21058;-66
2021/07/18 08:54:35;;;;;;;6.80;4.92;;;;;;;42.63;27.72;99464.95;1665868;84;21884;-67
2021/07/18 08:57:03;;;;;;;8.30;5.25;;;;;;;42.63;27.62;99470.43;1668227;84;21573;-67
2021/07/18 08:59:30;;;;;;;7.25;5.37;;;;;;;42.78;27.92;99465.48;1665857;84;21550;-66
2021/07/18 09:01:58;;;;;;;5.80;5.20;;;;;;;43.19;26.88;99462.33;1668579;85;21473;-67
2021/07/18 09:04:25;;;;;;;7.05;5.53;;;;;;;43.68;26.61;99466.56;1665561;84;21120;-65
2021/07/18 09:06:52;;;;;;;8.53;5.78;;;;;;;43.91;26.96;99467.02;1664340;86;21169;-67
2021/07/18 09:09:21;;;;;;;5.87;5.22;;;;;;;43.64;26.19;99457.61;1664759;86;21597;-66
2021/07/18 09:12:05;;;;;;;6.62;4.55;;;;;;;43.39;26.17;99454.65;1663735;84;21025;-66
2021/07/18 09:14:43;;;;;;;6.42;5.80;;;;;;;43.46;26.66;99450.38;1663715;84;21045;-66
2021/07/18 09:17:12;;;;;;;7.22;6.10;;;;;;;43.61;26.13;99448.88;1664826;86;21041;-60
2021/07/18 09:19:40;;;;;;;5.67;4.90;;;;;;;43.54;26.03;99448.27;1663714;86;21114;-68
2021/07/18 09:22:15;;;;;;;6.55;5.10;;;;;;;43.45;26.16;99448.81;1664649;84;21779;-67
2021/07/18 09:24:52;;;;;;;8.13;5.85;;;;;;;43.38;25.80;99444.85;1665108;86;21029;-66
2021/07/18 09:27:29;;;;;;;7.65;5.83;;;;;;;43.13;26.63;99450.90;1663807;86;21013;-61
2021/07/18 09:30:10;;;;;;;8.55;6.00;;;;;;;43.29;26.82;99446.05;1664665;84;20985;-66
2021/07/18 09:32:39;;;;;;;6.90;5.40;;;;;;;43.42;27.20;99449.69;1664672;86;21172;-66
2021/07/18 09:35:11;;;;;;;6.92;5.22;;;;;;;42.79;27.31;99455.28;1663584;84;20962;-66
2021/07/18 09:37:47;;;;;;;7.47;6.08;;;;;;;42.26;27.95;99458.56;1659845;84;21441;-68
2021/07/18 09:40:22;;;;;;;8.70;5.62;;;;;;;42.20;28.29;99453.94;1651701;84;21037;-68
2021/07/18 09:42:54;;;;;;;8.75;5.92;;;;;;;42.49;29.03;99458.36;1656189;84;21069;-62
2021/07/18 09:45:27;;;;;;;5.90;5.28;;;;;;;42.79;27.65;99452.55;1652019;84;21116;-68
2021/07/18 09:48:05;;;;;;;11.48;5.75;;;;;;;42.82;27.25;99452.48;1647403;86;21095;-65
2021/07/18 09:50:44;;;;;;;6.42;5.72;;;;;;;42.80;27.65;99451.34;1649425;84;21155;-65
2021/07/18 09:53:17;;;;;;;7.03;5.53;;;;;;;42.87;28.12;99449.84;1647302;84;21499;-66
2021/07/18 09:56:09;;;;;;;6.17;5.30;;;;;;;42.87;28.12;99449.84;1651000;84;21374;-66
2021/07/18 09:58:52;;;;;;;6.85;5.97;;;;;;;43.14;27.54;99460.66;1656952;84;21515;-67
2021/07/18 10:01:19;;;;;;;6.30;4.92;;;;;;;42.51;28.01;99454.61;1668974;85;21019;-65
2021/07/18 10:03:47;;;;;;;7.80;5.40;;;;;;;42.08;28.75;99444.36;1671222;85;21020;-66
2021/07/18 10:06:17;;;;;;;8.98;5.50;;;;;;;42.25;28.81;99450.17;1670568;84;21012;-63
2021/07/18 10:08:57;;;;;;;6.47;4.45;;;;;;;42.26;29.48;99454.45;1671709;85;21175;-65
2021/07/18 10:11:26;;;;;;;6.62;4.95;;;;;;;42.41;28.76;99455.58;1671503;84;21333;-63
2021/07/18 10:13:54;;;;;;;6.00;5.08;;;;;;;42.44;29.08;99464.33;1671674;84;20921;-63
2021/07/18 10:16:23;;;;;;;6.75;6.10;;;;;;;42.55;28.60;99451.21;1670402;83;21047;-66
2021/07/18 10:18:51;;;;;;;5.47;4.97;;;;;;;42.87;28.50;99449.23;1671503;85;21096;-65
2021/07/18 10:21:24;;;;;;;5.62;5.12;;;;;;;43.38;27.89;99447.59;1665791;84;21029;-66
2021/07/18 10:23:53;;;;;;;6.17;5.50;;;;;;;43.76;27.23;99451.27;1671065;85;21495;-66
2021/07/18 10:26:25;;;;;;;9.50;5.10;;;;;;;43.76;26.90;99451.27;1670841;85;21061;-66
2021/07/18 10:28:52;;;;;;;6.53;5.08;;;;;;;43.71;26.85;99445.70;1662523;84;21464;-66
2021/07/18 10:31:39;;;;;;;8.45;5.50;;;;;;;43.67;27.23;99451.27;1670941;84;21155;-65
2021/07/18 10:34:07;;;;;;;6.12;4.62;;;;;;;43.60;27.03;99452.03;1670684;84;21033;-67
2021/07/18 10:36:34;;;;;;;6.80;5.25;;;;;;;43.26;27.06;99449.03;1671385;85;22219;-66
2021/07/18 10:39:00;;;;;;;7.28;5.60;;;;;;;43.53;27.78;99444.77;1671579;84;20977;-65
2021/07/18 10:41:42;;;;;;;8.45;5.45;;;;;;;43.71;26.90;99443.72;1671030;85;21063;-67
2021/07/18 10:44:17;;;;;;;9.30;6.25;;;;;;;43.63;27.23;99439.61;1663371;84;21080;-66
2021/07/18 10:46:53;;;;;;;7.75;5.72;;;;;;;43.79;26.70;99439.44;1671552;84;21048;-61
2021/07/18 10:49:42;;;;;;;7.17;4.85;;;;;;;43.83;26.39;99440.89;1671592;84;21157;-66
2021/07/18 10:52:12;;;;;;;10.72;8.75;;;;;;;43.35;26.57;99438.88;1659879;85;21470;-66
2021/07/18 10:54:42;;;;;;;8.23;5.75;;;;;;;43.12;27.32;99435.05;1670489;85;20917;-64
2021/07/18 10:57:29;;;;;;;7.08;5.17;;;;;;;43.03;27.04;99436.17;1671566;84;21719;-65
2021/07/18 10:59:59;;;;;;;11.87;6.47;;;;;;;42.65;27.38;99422.81;1671549;85;21064;-65
2021/07/18 11:02:33;;;;;;;8.98;5.65;;;;;;;42.19;28.61;99423.65;1639909;85;21177;-64
2021/07/18 11:05:04;;;;;;;6.53;4.90;;;;;;;42.04;28.02;99419.78;1670716;85;22044;-60
2021/07/18 11:07:34;;;;;;;8.53;5.55;;;;;;;42.15;28.18;99420.20;1671208;83;21543;-67
2021/07/18 11:10:10;;;;;;;;;;;;;;;42.17;28.49;99419.20;1673380;83;21024;-67
2021/07/18 11:12:38;;;;;;;8.00;5.75;;;;;;;42.34;27.87;99421.45;1670535;85;20173;-68
2021/07/18 11:15:31;;;;;;;6.67;6.05;;;;;;;42.61;28.14;99411.14;1670898;84;21289;-67
2021/07/18 11:18:22;;;;;;;16.30;11.70;;;;;;;43.08;27.53;99415.16;1671488;84;20948;-62
2021/07/18 11:20:56;;;;;;;7.15;5.37;;;;;;;42.97;27.09;99410.47;1671724;84;21048;-68
2021/07/18 11:23:38;;;;;;;6.50;5.78;;;;;;;42.69;27.44;99415.31;1671603;84;21630;-68
2021/07/18 11:26:11;;;;;;;6.33;5.33;;;;;;;42.41;27.36;99408.41;1671756;85;21071;-67
2021/07/18 11:29:02;;;;;;;5.95;5.25;;;;;;;42.11;27.16;99409.31;1671966;85;21106;-68
2021/07/18 11:31:25;;;;;;;7.53;6.53;;;;;;;42.08;28.11;99403.89;1668770;84;21510;-66
2021/07/18 11:34:00;;;;;;;10.23;9.18;;;;;;;42.14;28.07;99408.48;1670977;84;21293;-68